Terminal Aerodrome Forecast
Issued by NWS Charleston, WV

Current Version | Previous Version | Graphics & Text | Print | Product List | Glossary On
Versions: 1 2 3 4 5 6 7 8 9 10 11 12 13 14 15 16 17 18 19 20 21 22 23 24 25
000
FTUS41 KRLX 040558
TAFHTS
TAF
KHTS 040558Z 0406/0506 00000KT P6SM BKN040
     FM040900 00000KT 6SM BR BKN025
     FM041000 00000KT 5SM BR BKN010
     FM041100 00000KT 4SM BR SCT010
     FM041400 00000KT 6SM BR SCT015
     FM041500 00000KT P6SM SCT015
     FM042000 27006KT P6SM SCT050
     FM042300 29004KT P6SM BKN050
     FM050200 00000KT P6SM SCT040=

USA.gov is the U.S. government's official web portal to all federal, state and local government web resources and services.